Time;durP1;ratioP1;P1;durP2;ratioP2;P2;SDS_P1;SDS_P2;PMS_P1;PMS_P2;Temp;Humidity;BMP_temperature;BMP_pressure;BME280_temperature;BME280_humidity;BME280_pressure;Samples;Min_cycle;Max_cycle;Signal;HPM_P1;HPM_P2
2022/11/28 00:01:51;;;;;;;10.30;3.13;;;24.10;99.90;;;;;;5076259;28;20402;-85
2022/11/28 00:04:19;;;;;;;9.87;2.70;;;24.20;99.90;;;;;;5054917;28;20376;-88
2022/11/28 00:06:50;;;;;;;10.45;2.70;;;24.50;99.90;;;;;;5054508;28;20395;-90
2022/11/28 00:09:20;;;;;;;11.05;2.83;;;24.60;99.90;;;;;;5069514;28;20397;-94
2022/11/28 00:11:51;;;;;;;9.80;2.70;;;24.50;99.90;;;;;;5073122;28;20431;-94
2022/11/28 00:14:19;;;;;;;9.40;2.70;;;24.40;99.90;;;;;;5073144;28;20387;-90
2022/11/28 00:16:46;;;;;;;11.18;3.05;;;24.00;99.90;;;;;;5073537;28;20436;-88
2022/11/28 00:19:14;;;;;;;10.23;2.72;;;24.10;99.90;;;;;;5059408;28;20422;-94
2022/11/28 00:21:43;;;;;;;8.90;2.80;;;24.20;99.90;;;;;;5073031;28;20397;-95
2022/11/28 00:24:10;;;;;;;10.43;3.00;;;24.40;99.90;;;;;;5071660;28;20366;-93
2022/11/28 00:26:39;;;;;;;10.63;2.75;;;24.40;99.90;;;;;;5074068;28;20428;-92
2022/11/28 00:29:07;;;;;;;11.88;3.03;;;24.40;99.90;;;;;;5080163;28;20385;-87
2022/11/28 00:31:42;;;;;;;13.35;2.75;;;24.40;99.90;;;;;;5080170;28;20386;-88
2022/11/28 00:34:11;;;;;;;10.75;2.83;;;24.20;99.90;;;;;;5075717;28;20374;-93
2022/11/28 00:36:38;;;;;;;9.60;2.75;;;24.10;99.90;;;;;;5078220;28;20869;-84
2022/11/28 00:39:05;;;;;;;8.82;2.72;;;23.90;99.90;;;;;;5058417;28;20385;-92
2022/11/28 00:41:34;;;;;;;7.88;2.40;;;23.80;99.90;;;;;;5075904;28;20397;-90
2022/11/28 00:44:01;;;;;;;9.57;2.77;;;23.70;99.90;;;;;;5074752;28;20388;-92
2022/11/28 00:46:28;;;;;;;9.52;2.40;;;23.50;99.90;;;;;;5076234;28;20381;-90
2022/11/28 00:49:02;;;;;;;11.30;3.00;;;23.50;99.90;;;;;;5078129;28;21046;-90
2022/11/28 00:51:33;;;;;;;11.90;3.10;;;23.60;99.90;;;;;;5079286;28;20515;-90
2022/11/28 00:54:03;;;;;;;8.40;2.65;;;23.60;99.90;;;;;;5073975;28;20382;-93
2022/11/28 00:56:40;;;;;;;9.60;2.50;;;24.10;99.90;;;;;;5058594;28;20476;-94
2022/11/28 00:59:08;;;;;;;11.30;2.70;;;24.70;99.90;;;;;;5075812;28;20406;-82
2022/11/28 01:01:41;;;;;;;12.73;2.90;;;25.30;99.90;;;;;;5077891;28;20986;-92
2022/11/28 01:04:12;;;;;;;11.30;2.70;;;25.70;99.90;;;;;;5082019;28;20381;-85
2022/11/28 01:06:45;;;;;;;9.77;2.90;;;26.00;97.90;;;;;;5059742;28;20785;-87
2022/11/28 01:09:16;;;;;;;8.57;2.67;;;25.90;98.90;;;;;;5075472;28;20382;-88
2022/11/28 01:11:45;;;;;;;10.60;2.60;;;25.80;98.20;;;;;;5066119;28;20356;-87
2022/11/28 01:14:18;;;;;;;8.13;2.90;;;25.40;98.10;;;;;;5069093;28;20704;-83
2022/11/28 01:16:45;;;;;;;9.95;2.78;;;25.00;99.40;;;;;;5076143;28;20766;-84
2022/11/28 01:19:12;;;;;;;7.32;2.40;;;24.90;99.00;;;;;;5072684;28;20675;-85
2022/11/28 01:21:40;;;;;;;10.15;2.63;;;24.90;99.40;;;;;;5071033;28;20939;-87
2022/11/28 01:24:07;;;;;;;10.03;2.73;;;25.10;99.80;;;;;;5072366;28;20413;-86
2022/11/28 01:26:37;;;;;;;8.80;2.78;;;25.30;98.90;;;;;;5073079;28;20504;-88
2022/11/28 01:29:04;;;;;;;8.77;2.60;;;25.50;99.30;;;;;;5077526;28;20374;-89
2022/11/28 01:31:34;;;;;;;8.73;2.28;;;26.20;98.30;;;;;;5061688;28;20384;-87
2022/11/28 01:34:01;;;;;;;7.57;2.70;;;26.70;95.40;;;;;;5061554;28;20756;-90
2022/11/28 01:36:28;;;;;;;7.43;2.38;;;26.60;95.30;;;;;;5072057;28;20378;-93
2022/11/28 01:38:57;;;;;;;6.43;2.47;;;26.60;95.90;;;;;;5075856;28;20370;-88
2022/11/28 01:41:26;;;;;;;9.63;2.58;;;26.80;94.70;;;;;;5059248;28;20751;-96
2022/11/28 01:44:16;;;;;;;6.13;2.10;;;26.70;94.00;;;;;;5083143;28;20366;-86
2022/11/28 01:46:43;;;;;;;6.93;2.17;;;27.50;92.50;;;;;;4998739;28;20393;-88
2022/11/28 01:49:29;;;;;;;8.07;2.45;;;28.50;90.20;;;;;;4980844;28;20900;-86
2022/11/28 01:52:02;;;;;;;8.73;2.30;;;28.30;87.80;;;;;;4988123;28;20420;-90
2022/11/28 01:54:30;;;;;;;6.43;2.20;;;27.50;88.20;;;;;;4988407;28;20535;-85
2022/11/28 01:57:10;;;;;;;7.90;2.50;;;27.10;90.40;;;;;;4993661;28;20428;-84
2022/11/28 01:59:46;;;;;;;6.75;2.10;;;27.80;89.30;;;;;;4985509;28;20385;-90
2022/11/28 02:02:22;;;;;;;6.72;2.03;;;28.40;87.80;;;;;;4994233;28;20404;-84
2022/11/28 02:04:50;;;;;;;5.82;2.00;;;29.00;84.80;;;;;;4960828;29;20389;-84
2022/11/28 02:07:18;;;;;;;5.53;1.80;;;29.40;83.10;;;;;;4958098;28;20392;-92
2022/11/28 02:09:49;;;;;;;7.25;2.00;;;30.00;75.30;;;;;;4999452;28;20413;-83
2022/11/28 02:12:39;;;;;;;6.63;2.10;;;30.10;78.30;;;;;;4968948;28;20386;-85
2022/11/28 02:15:33;;;;;;;8.83;2.30;;;30.60;72.70;;;;;;4942012;29;20426;-91
2022/11/28 02:18:26;;;;;;;6.25;2.20;;;29.90;72.50;;;;;;4926814;29;20884;-89
2022/11/28 02:20:55;;;;;;;6.72;2.05;;;30.30;72.80;;;;;;4958957;29;20470;-83
2022/11/28 02:23:32;;;;;;;6.80;2.20;;;31.10;72.50;;;;;;4991848;28;20405;-82
2022/11/28 02:26:33;;;;;;;6.30;2.10;;;31.30;70.80;;;;;;5039084;28;20410;-84
2022/11/28 02:29:18;;;;;;;6.23;2.10;;;32.00;66.20;;;;;;5014455;28;20407;-87
2022/11/28 02:32:14;;;;;;;4.90;1.98;;;31.70;65.00;;;;;;5038872;28;20509;-86
2022/11/28 02:35:06;;;;;;;7.15;2.20;;;31.60;64.90;;;;;;5038292;28;20384;-84
2022/11/28 02:38:13;;;;;;;5.10;2.10;;;31.40;67.50;;;;;;4993805;28;20385;-83
2022/11/28 02:41:10;;;;;;;5.00;2.10;;;30.90;66.00;;;;;;5030299;28;20419;-86
2022/11/28 02:44:20;;;;;;;7.75;2.20;;;29.80;67.10;;;;;;5043768;28;20382;-86
2022/11/28 02:47:39;;;;;;;5.72;1.98;;;29.10;70.10;;;;;;4949160;29;20416;-88
2022/11/28 02:50:31;;;;;;;7.20;2.13;;;28.40;72.90;;;;;;4891467;29;20385;-83
2022/11/28 02:53:13;;;;;;;7.15;2.30;;;27.70;75.00;;;;;;4907558;29;20478;-85
2022/11/28 02:55:44;;;;;;;9.17;2.50;;;27.20;78.40;;;;;;4907303;29;20424;-85
2022/11/28 02:58:19;;;;;;;6.70;2.20;;;27.20;79.20;;;;;;4913481;29;20416;-83
2022/11/28 03:00:48;;;;;;;8.77;2.47;;;27.80;80.40;;;;;;4907577;29;20425;-84
2022/11/28 03:03:57;;;;;;;8.27;2.28;;;29.40;75.80;;;;;;4908490;29;20414;-87
2022/11/28 03:07:03;;;;;;;9.18;2.13;;;30.90;72.70;;;;;;4827408;29;20925;-83
2022/11/28 03:10:05;;;;;;;7.15;2.00;;;31.00;67.50;;;;;;4828379;29;20467;-84
2022/11/28 03:12:57;;;;;;;7.38;2.20;;;31.60;66.80;;;;;;4810204;29;20407;-82
2022/11/28 03:15:40;;;;;;;5.47;2.13;;;32.10;66.80;;;;;;4791329;29;20400;-82
2022/11/28 03:18:40;;;;;;;7.70;2.25;;;32.40;66.70;;;;;;4776176;30;20421;-83
2022/11/28 03:21:35;;;;;;;8.48;2.28;;;32.50;62.90;;;;;;4780172;30;20424;-83
2022/11/28 03:24:25;;;;;;;6.70;2.33;;;31.90;64.80;;;;;;4799478;30;20396;-92
2022/11/28 03:27:06;;;;;;;7.88;2.15;;;32.40;63.10;;;;;;4835474;29;20400;-83
2022/11/28 03:29:53;;;;;;;6.60;2.20;;;32.30;63.50;;;;;;4837643;29;20380;-86
2022/11/28 03:32:28;;;;;;;8.35;2.30;;;32.90;62.00;;;;;;4838062;29;20457;-90
2022/11/28 03:35:19;;;;;;;6.93;2.03;;;33.60;62.50;;;;;;4838524;29;20414;-83
2022/11/28 03:37:56;;;;;;;8.30;2.33;;;33.00;60.80;;;;;;4851352;29;20392;-85
2022/11/28 03:40:57;;;;;;;8.60;2.40;;;31.70;63.00;;;;;;4809253;29;20400;-96
2022/11/28 03:43:35;;;;;;;9.65;2.40;;;30.70;65.90;;;;;;4868711;29;20443;-91
2022/11/28 03:46:08;;;;;;;10.75;2.50;;;29.20;68.90;;;;;;4869887;29;20397;-87
2022/11/28 03:48:47;;;;;;;9.93;2.60;;;28.00;71.60;;;;;;4922577;28;20381;-94
2022/11/28 03:51:39;;;;;;;11.70;2.58;;;27.20;75.10;;;;;;5003015;28;20435;-94
2022/11/28 03:54:51;;;;;;;10.05;2.55;;;26.50;77.50;;;;;;5041224;28;20385;-90
2022/11/28 03:57:39;;;;;;;12.13;2.67;;;26.30;79.70;;;;;;4963290;28;20399;-91
2022/11/28 04:00:09;;;;;;;9.27;2.57;;;27.50;78.40;;;;;;4963624;29;20479;-92
2022/11/28 04:03:03;;;;;;;11.97;2.60;;;28.90;75.70;;;;;;4963735;29;20412;-91
2022/11/28 04:08:44;;;;;;;10.40;2.80;;;30.70;70.40;;;;;;4923916;29;20395;-96
2022/11/28 04:11:43;;;;;;;8.43;2.47;;;31.60;67.40;;;;;;4926842;29;20457;-96
2022/11/28 04:14:28;;;;;;;9.13;2.70;;;31.70;66.80;;;;;;4929185;29;20426;-88
2022/11/28 04:17:23;;;;;;;10.63;2.40;;;31.00;67.40;;;;;;4915543;29;20427;-88
2022/11/28 04:20:16;;;;;;;8.65;2.63;;;30.40;67.20;;;;;;4912040;29;20404;-93
2022/11/28 04:22:54;;;;;;;7.25;2.50;;;30.30;68.20;;;;;;4859166;29;20420;-91
2022/11/28 04:25:44;;;;;;;8.68;2.60;;;30.10;68.10;;;;;;4861611;29;20476;-93
2022/11/28 04:28:18;;;;;;;9.35;2.53;;;28.80;69.70;;;;;;4861567;29;20415;-93
2022/11/28 04:30:48;;;;;;;10.60;2.90;;;28.50;71.80;;;;;;4853600;29;20495;-90
2022/11/28 04:33:18;;;;;;;9.52;2.50;;;28.20;72.70;;;;;;4852246;29;20408;-90
2022/11/28 04:35:51;;;;;;;7.47;2.47;;;27.90;73.50;;;;;;4844587;29;20808;-90
2022/11/28 04:38:20;;;;;;;10.43;2.90;;;27.90;74.20;;;;;;4841388;29;20410;-93
2022/11/28 04:41:00;;;;;;;8.05;2.38;;;28.00;74.50;;;;;;4853491;29;20881;-92
2022/11/28 04:43:33;;;;;;;8.85;2.20;;;28.50;74.20;;;;;;4824427;29;20921;-90
2022/11/28 04:46:14;;;;;;;8.07;2.50;;;29.40;71.20;;;;;;4919779;29;20380;-90
2022/11/28 04:48:42;;;;;;;9.43;2.65;;;29.30;69.90;;;;;;4946647;29;20481;-90
2022/11/28 04:51:51;;;;;;;9.82;2.72;;;29.10;71.80;;;;;;4931039;29;20392;-90
2022/11/28 04:54:22;;;;;;;8.57;2.70;;;29.30;71.10;;;;;;4929705;29;20415;-90
2022/11/28 04:57:35;;;;;;;9.77;2.60;;;29.40;69.40;;;;;;4946463;29;20388;-89
2022/11/28 05:00:05;;;;;;;8.30;2.38;;;29.00;70.10;;;;;;4984096;28;20420;-91
2022/11/28 05:02:34;;;;;;;10.73;2.42;;;29.30;71.20;;;;;;5029287;28;20782;-90
2022/11/28 05:05:05;;;;;;;8.13;2.30;;;29.90;69.50;;;;;;5027080;28;20380;-90
2022/11/28 05:07:32;;;;;;;8.15;2.50;;;29.90;68.10;;;;;;5026576;28;20370;-90
2022/11/28 05:09:59;;;;;;;11.13;2.45;;;29.40;69.20;;;;;;5018184;28;20393;-89
2022/11/28 05:12:26;;;;;;;10.23;2.53;;;29.60;69.30;;;;;;5013924;28;20491;-90
2022/11/28 05:14:53;;;;;;;10.32;2.55;;;29.50;69.10;;;;;;5007838;28;20388;-88
2022/11/28 05:17:20;;;;;;;9.32;2.60;;;29.50;69.60;;;;;;5001224;28;20423;-87
2022/11/28 05:19:47;;;;;;;9.43;2.58;;;29.60;69.40;;;;;;5007141;28;20386;-90
2022/11/28 05:22:14;;;;;;;7.97;2.53;;;29.20;69.40;;;;;;5017260;28;20492;-88
2022/11/28 05:24:41;;;;;;;8.73;2.60;;;29.40;69.40;;;;;;5028784;28;20385;-87
2022/11/28 05:27:10;;;;;;;9.38;2.60;;;29.90;68.90;;;;;;5029347;28;20439;-87
2022/11/28 05:29:42;;;;;;;8.73;2.30;;;30.10;67.40;;;;;;5029756;28;20370;-87
2022/11/28 05:32:09;;;;;;;12.20;2.38;;;30.30;67.90;;;;;;5014473;28;20391;-91
2022/11/28 05:34:37;;;;;;;8.93;2.50;;;30.10;67.40;;;;;;5009505;28;20414;-91
2022/11/28 05:37:04;;;;;;;8.48;2.33;;;29.50;67.40;;;;;;5012895;28;20778;-92
2022/11/28 05:39:32;;;;;;;8.55;2.58;;;28.50;68.80;;;;;;5009720;28;20395;-92
2022/11/28 05:41:59;;;;;;;6.47;2.15;;;28.30;71.80;;;;;;5010192;28;20489;-92
2022/11/28 05:44:26;;;;;;;8.65;2.50;;;28.60;71.40;;;;;;5009699;28;20380;-87
2022/11/28 05:46:53;;;;;;;7.07;2.22;;;29.20;69.30;;;;;;5008964;28;20771;-87
2022/11/28 05:49:20;;;;;;;10.80;2.30;;;29.70;67.90;;;;;;5009555;28;20445;-89
2022/11/28 05:51:48;;;;;;;7.10;2.20;;;30.00;68.60;;;;;;5009492;28;20466;-94
2022/11/28 05:54:15;;;;;;;6.88;2.47;;;30.20;67.00;;;;;;5009413;28;21290;-90
2022/11/28 05:56:42;;;;;;;8.38;2.20;;;30.60;66.30;;;;;;5014544;28;20390;-90
2022/11/28 05:59:09;;;;;;;8.75;2.58;;;30.80;65.50;;;;;;5049058;28;20402;-92
2022/11/28 06:01:36;;;;;;;8.75;2.55;;;30.60;65.10;;;;;;5049696;28;20533;-85
2022/11/28 06:04:03;;;;;;;7.60;2.47;;;30.60;65.90;;;;;;5048620;28;20445;-86
2022/11/28 06:06:32;;;;;;;10.88;2.30;;;30.70;65.00;;;;;;5048517;28;20391;-86
2022/11/28 06:09:00;;;;;;;7.03;2.50;;;30.70;64.60;;;;;;5048900;28;20375;-87
2022/11/28 06:11:29;;;;;;;9.18;2.78;;;30.80;64.80;;;;;;5048323;28;20502;-88
2022/11/28 06:14:01;;;;;;;7.18;2.33;;;30.80;64.20;;;;;;5048235;28;20387;-85
2022/11/28 06:16:30;;;;;;;8.15;2.60;;;30.80;63.70;;;;;;5048158;28;20422;-84
2022/11/28 06:19:06;;;;;;;8.60;2.40;;;30.40;64.70;;;;;;5048492;28;20383;-83
2022/11/28 06:21:33;;;;;;;7.43;2.40;;;30.10;66.20;;;;;;5051051;28;20441;-87
2022/11/28 06:24:00;;;;;;;10.57;2.50;;;30.30;65.70;;;;;;5058548;28;20387;-86
2022/11/28 06:26:28;;;;;;;11.35;6.65;;;30.50;64.60;;;;;;5040339;28;20942;-84
2022/11/28 06:28:56;;;;;;;18.90;12.07;;;30.50;64.80;;;;;;5059777;28;20387;-88
2022/11/28 06:31:28;;;;;;;39.55;27.35;;;30.60;64.30;;;;;;5055936;28;20437;-82
2022/11/28 06:33:56;;;;;;;21.95;12.48;;;30.90;63.10;;;;;;5064363;28;20381;-85
2022/11/28 06:36:25;;;;;;;91.82;62.67;;;30.50;63.70;;;;;;5056743;28;20396;-85
2022/11/28 06:38:53;;;;;;;12.35;5.80;;;30.60;64.90;;;;;;5063166;28;20393;-83
2022/11/28 06:41:21;;;;;;;9.43;2.83;;;30.60;63.50;;;;;;5059077;28;20405;-83
2022/11/28 06:43:49;;;;;;;11.93;2.58;;;30.40;63.70;;;;;;5042486;28;20408;-83
2022/11/28 06:46:19;;;;;;;7.82;2.47;;;30.10;64.90;;;;;;5062228;28;20929;-83
2022/11/28 06:48:47;;;;;;;5.72;2.20;;;30.20;64.40;;;;;;5052870;28;20382;-84
2022/11/28 06:51:15;;;;;;;8.50;2.50;;;30.10;65.40;;;;;;5057741;28;20476;-82
2022/11/28 06:53:42;;;;;;;8.43;2.70;;;29.80;65.70;;;;;;5066599;28;20420;-84
2022/11/28 06:56:15;;;;;;;7.23;2.40;;;29.90;64.90;;;;;;5056518;28;20393;-83
2022/11/28 06:58:42;;;;;;;8.00;2.20;;;30.00;65.20;;;;;;5066036;28;20394;-84
2022/11/28 07:01:19;;;;;;;9.25;2.50;;;30.10;65.10;;;;;;5057564;28;20538;-83
2022/11/28 07:03:46;;;;;;;7.18;2.40;;;30.00;64.20;;;;;;5058189;28;20989;-85
2022/11/28 07:06:15;;;;;;;9.05;2.35;;;29.90;64.50;;;;;;5061029;28;20391;-82
2022/11/28 07:08:42;;;;;;;9.57;2.45;;;29.60;65.60;;;;;;5053826;28;20753;-83
2022/11/28 07:11:15;;;;;;;5.28;2.00;;;29.40;65.40;;;;;;5063896;28;20511;-84
2022/11/28 07:13:45;;;;;;;7.85;2.30;;;29.30;66.10;;;;;;5066652;28;20389;-84
2022/11/28 07:16:15;;;;;;;9.43;2.13;;;29.10;65.90;;;;;;5067102;28;20382;-83
2022/11/28 07:18:43;;;;;;;6.97;2.20;;;28.90;66.50;;;;;;5050935;28;20374;-83
2022/11/28 07:21:11;;;;;;;4.75;1.85;;;28.20;67.90;;;;;;5049233;28;20404;-89
2022/11/28 07:23:38;;;;;;;6.68;2.25;;;27.90;69.30;;;;;;5048425;28;20495;-85
2022/11/28 07:26:06;;;;;;;8.70;2.33;;;28.20;69.00;;;;;;5059221;28;20881;-83
2022/11/28 07:28:34;;;;;;;8.00;2.38;;;28.00;69.00;;;;;;5034557;28;20395;-85
2022/11/28 07:31:13;;;;;;;7.85;2.22;;;28.10;69.40;;;;;;5058405;28;20437;-85
2022/11/28 07:33:42;;;;;;;6.22;2.05;;;27.90;70.00;;;;;;5061912;28;20867;-87
2022/11/28 07:36:19;;;;;;;8.55;2.38;;;27.80;69.80;;;;;;5047263;28;20383;-88
2022/11/28 07:38:51;;;;;;;8.63;2.55;;;27.70;70.40;;;;;;5048975;28;20388;-88
2022/11/28 07:41:18;;;;;;;8.33;2.20;;;27.60;70.40;;;;;;5058846;28;20394;-84
2022/11/28 07:43:47;;;;;;;8.30;2.20;;;27.30;71.40;;;;;;5066682;28;20382;-91
2022/11/28 07:46:17;;;;;;;7.13;2.40;;;27.10;71.80;;;;;;5059033;28;20642;-87
2022/11/28 07:48:45;;;;;;;9.82;2.60;;;26.90;72.60;;;;;;5061071;28;20731;-86
2022/11/28 07:51:18;;;;;;;9.90;3.08;;;26.70;73.40;;;;;;5057039;28;20469;-89
2022/11/28 07:53:45;;;;;;;7.57;2.35;;;26.60;73.70;;;;;;5068358;28;20372;-86
2022/11/28 07:56:18;;;;;;;7.20;2.30;;;26.50;73.60;;;;;;5067866;28;20378;-88
2022/11/28 07:58:46;;;;;;;10.40;2.67;;;26.20;74.50;;;;;;5068257;28;20886;-86
2022/11/28 08:01:13;;;;;;;7.32;2.60;;;25.80;76.60;;;;;;5063967;28;20502;-87
2022/11/28 08:03:41;;;;;;;8.00;2.70;;;25.40;77.20;;;;;;5055706;28;20381;-87
2022/11/28 08:06:08;;;;;;;10.63;2.80;;;24.80;79.80;;;;;;5065025;28;20386;-86
2022/11/28 08:08:36;;;;;;;8.80;2.30;;;24.40;81.70;;;;;;5048588;28;20370;-86
2022/11/28 08:11:05;;;;;;;9.25;2.70;;;24.00;82.90;;;;;;5066668;28;20761;-86
2022/11/28 08:13:33;;;;;;;8.13;2.47;;;23.80;84.40;;;;;;5066671;28;20392;-88
2022/11/28 08:16:05;;;;;;;10.20;2.83;;;23.70;85.40;;;;;;5052373;28;20374;-85
2022/11/28 08:18:33;;;;;;;8.70;2.30;;;23.40;86.80;;;;;;5055447;28;20399;-87
2022/11/28 08:21:18;;;;;;;9.57;2.40;;;23.10;88.30;;;;;;5056346;28;20810;-87
2022/11/28 08:23:45;;;;;;;7.47;2.27;;;22.90;90.30;;;;;;5065630;28;20472;-87
2022/11/28 08:26:15;;;;;;;11.77;2.88;;;22.70;91.50;;;;;;5065984;28;20370;-85
2022/11/28 08:28:43;;;;;;;13.25;2.75;;;22.60;92.90;;;;;;5051825;28;20778;-87
2022/11/28 08:31:15;;;;;;;9.95;2.72;;;22.30;94.70;;;;;;5053415;28;20378;-85
2022/11/28 08:33:43;;;;;;;10.23;2.88;;;22.10;96.40;;;;;;5037888;28;20387;-86
2022/11/28 08:36:11;;;;;;;8.25;2.78;;;22.00;98.10;;;;;;5038505;28;20393;-86
2022/11/28 08:38:41;;;;;;;8.13;2.90;;;21.80;99.10;;;;;;5065089;28;20373;-84
2022/11/28 08:41:11;;;;;;;11.73;3.10;;;21.70;99.90;;;;;;5055241;28;20584;-87
2022/11/28 08:43:39;;;;;;;12.52;3.88;;;21.60;99.90;;;;;;5064253;28;20873;-86
2022/11/28 08:46:10;;;;;;;10.65;3.65;;;21.50;99.90;;;;;;5066272;28;20447;-87
2022/11/28 08:48:38;;;;;;;11.52;3.05;;;21.40;99.90;;;;;;5066184;28;20453;-82
2022/11/28 08:51:08;;;;;;;10.23;2.90;;;21.30;99.90;;;;;;5061785;28;20392;-86
2022/11/28 08:53:35;;;;;;;10.85;2.83;;;21.00;99.90;;;;;;5060144;28;20380;-88
2022/11/28 08:56:02;;;;;;;8.50;2.72;;;21.00;99.90;;;;;;5055367;28;20386;-87
2022/11/28 08:58:29;;;;;;;8.95;3.08;;;20.90;99.90;;;;;;5069247;28;20473;-89
2022/11/28 09:00:56;;;;;;;12.73;3.67;;;20.70;99.90;;;;;;5065459;28;20397;-89
2022/11/28 09:03:23;;;;;;;11.75;3.47;;;20.60;99.90;;;;;;5059746;28;20417;-89
2022/11/28 09:05:51;;;;;;;10.85;2.90;;;20.50;99.90;;;;;;5069872;28;20362;-85
2022/11/28 09:08:20;;;;;;;11.33;2.83;;;20.40;99.90;;;;;;5061293;28;20392;-88
2022/11/28 09:10:47;;;;;;;9.20;2.38;;;20.40;99.90;;;;;;5058121;28;20385;-90
2022/11/28 09:13:15;;;;;;;10.25;2.78;;;20.30;99.90;;;;;;5066361;28;20942;-87
2022/11/28 09:15:44;;;;;;;9.15;2.72;;;20.30;99.90;;;;;;5068600;28;20461;-88
2022/11/28 09:18:13;;;;;;;8.65;2.65;;;20.20;99.90;;;;;;5056014;28;20419;-84
2022/11/28 09:20:40;;;;;;;9.35;2.55;;;20.20;99.90;;;;;;5062749;28;20449;-88
2022/11/28 09:23:08;;;;;;;10.05;2.70;;;20.10;99.90;;;;;;5066069;28;20397;-91
2022/11/28 09:25:36;;;;;;;9.50;2.67;;;20.10;99.90;;;;;;5058020;28;20375;-92
2022/11/28 09:28:04;;;;;;;10.13;2.70;;;20.00;99.90;;;;;;5058236;28;20399;-91
2022/11/28 09:30:31;;;;;;;7.72;2.40;;;19.90;99.90;;;;;;5059204;28;20921;-92
2022/11/28 09:32:58;;;;;;;8.57;2.58;;;20.00;99.90;;;;;;5068102;28;20539;-92
2022/11/28 09:35:24;;;;;;;10.75;2.92;;;19.90;99.90;;;;;;5069003;28;20382;-90
2022/11/28 09:37:52;;;;;;;9.63;2.70;;;19.90;99.90;;;;;;5063903;28;20384;-88
2022/11/28 09:40:41;;;;;;;10.55;2.67;;;19.80;99.90;;;;;;5070577;28;20945;-92
2022/11/28 09:43:39;;;;;;;11.93;2.77;;;19.80;99.90;;;;;;5047479;28;20526;-93
2022/11/28 09:46:13;;;;;;;8.75;2.50;;;19.70;99.90;;;;;;5053899;28;20384;-87
2022/11/28 09:48:51;;;;;;;9.63;2.63;;;19.60;99.90;;;;;;5054938;28;20502;-88
2022/11/28 09:51:56;;;;;;;9.07;2.60;;;19.60;99.90;;;;;;5051474;28;20463;-91
2022/11/28 09:54:37;;;;;;;8.20;2.63;;;19.60;99.90;;;;;;4977328;28;20479;-91
2022/11/28 09:57:15;;;;;;;9.13;2.45;;;19.50;99.90;;;;;;4974504;28;20417;-90
2022/11/28 09:59:42;;;;;;;10.90;2.60;;;19.40;99.90;;;;;;4979226;28;20397;-89
2022/11/28 10:02:28;;;;;;;10.38;2.30;;;19.30;99.90;;;;;;4971735;28;20964;-87
2022/11/28 10:05:26;;;;;;;10.10;2.47;;;19.30;99.90;;;;;;4987463;28;20550;-90
2022/11/28 10:08:40;;;;;;;10.27;2.53;;;19.20;99.90;;;;;;4979548;28;20873;-86
2022/11/28 10:11:19;;;;;;;9.77;2.47;;;19.20;99.90;;;;;;4958581;28;21037;-89
2022/11/28 10:14:22;;;;;;;11.57;3.00;;;19.40;99.90;;;;;;4959820;28;20409;-90
2022/11/28 10:17:18;;;;;;;9.20;2.60;;;19.20;99.90;;;;;;4939349;28;20427;-87
2022/11/28 10:20:01;;;;;;;11.05;4.40;;;19.30;99.90;;;;;;4951169;28;20398;-90
2022/11/28 10:22:40;;;;;;;14.07;5.53;;;19.20;99.90;;;;;;4967341;28;20414;-89
2022/11/28 10:25:20;;;;;;;13.35;4.65;;;19.20;99.90;;;;;;4963453;28;20492;-91
2022/11/28 10:27:48;;;;;;;9.73;3.20;;;19.20;99.90;;;;;;4948067;28;20491;-91
2022/11/28 10:30:28;;;;;;;13.10;3.53;;;19.30;99.90;;;;;;4939840;28;20466;-91
2022/11/28 10:33:29;;;;;;;13.38;4.65;;;19.30;99.90;;;;;;5027610;28;20491;-92
2022/11/28 10:36:03;;;;;;;9.25;3.05;;;19.40;99.90;;;;;;4976536;28;20404;-92
2022/11/28 10:38:35;;;;;;;13.60;3.70;;;19.50;99.90;;;;;;4980924;28;20435;-89
2022/11/28 10:41:36;;;;;;;9.90;3.50;;;19.70;99.90;;;;;;4975703;28;20801;-86
2022/11/28 10:44:12;;;;;;;10.73;3.17;;;19.70;99.90;;;;;;4967351;28;20382;-89
2022/11/28 10:46:53;;;;;;;8.60;2.90;;;19.70;99.90;;;;;;4981024;28;20389;-86
2022/11/28 10:49:30;;;;;;;8.48;2.50;;;19.80;99.90;;;;;;4963703;28;20393;-91
2022/11/28 10:52:20;;;;;;;10.23;2.70;;;19.80;99.90;;;;;;4986931;28;20385;-91
2022/11/28 10:55:14;;;;;;;12.00;3.55;;;19.90;99.90;;;;;;4986728;28;20407;-91
2022/11/28 10:58:24;;;;;;;10.50;4.00;;;20.00;99.90;;;;;;4975026;28;20420;-85
2022/11/28 11:00:57;;;;;;;9.25;3.25;;;20.00;99.90;;;;;;4965815;28;20412;-89
2022/11/28 11:03:32;;;;;;;9.68;2.80;;;19.90;99.90;;;;;;4959311;28;20402;-88
2022/11/28 11:06:03;;;;;;;11.53;2.70;;;19.90;99.90;;;;;;4957954;28;21746;-89
2022/11/28 11:08:34;;;;;;;11.02;2.50;;;19.90;99.90;;;;;;4965258;28;20534;-91
2022/11/28 11:11:31;;;;;;;10.50;2.95;;;19.90;99.90;;;;;;4950309;28;20398;-91
2022/11/28 11:14:07;;;;;;;9.15;2.50;;;19.90;99.90;;;;;;5025099;28;20370;-90
2022/11/28 11:17:06;;;;;;;10.38;2.47;;;19.90;99.90;;;;;;5016486;28;20395;-91
2022/11/28 11:19:37;;;;;;;9.82;2.50;;;19.90;99.90;;;;;;4952426;28;20485;-87
2022/11/28 11:22:19;;;;;;;11.25;2.90;;;19.80;99.90;;;;;;4965145;28;20446;-90
2022/11/28 11:25:12;;;;;;;9.73;2.53;;;19.70;99.90;;;;;;4965945;28;20395;-89
2022/11/28 11:27:50;;;;;;;9.35;2.63;;;19.70;99.90;;;;;;4959651;28;20926;-90
2022/11/28 11:30:41;;;;;;;10.05;2.35;;;19.70;99.90;;;;;;4949842;28;20889;-85
2022/11/28 11:33:16;;;;;;;10.23;2.72;;;19.70;99.90;;;;;;4983751;28;20871;-88
2022/11/28 11:35:48;;;;;;;10.90;2.53;;;19.70;99.90;;;;;;4972477;28;20487;-87
2022/11/28 11:38:21;;;;;;;11.40;2.70;;;19.70;99.90;;;;;;4984550;28;20385;-88
2022/11/28 11:40:49;;;;;;;7.07;2.25;;;19.80;99.90;;;;;;4979075;28;20384;-89
2022/11/28 11:43:26;;;;;;;10.27;2.60;;;19.80;99.90;;;;;;4973412;28;20405;-86
2022/11/28 11:46:10;;;;;;;10.93;2.50;;;19.80;99.90;;;;;;4969808;28;20412;-86
2022/11/28 11:48:45;;;;;;;9.85;2.55;;;19.80;99.90;;;;;;4965718;28;20415;-87
2022/11/28 11:51:29;;;;;;;9.93;2.45;;;19.70;99.90;;;;;;4979100;28;20396;-87
2022/11/28 11:54:22;;;;;;;12.35;2.63;;;19.70;99.90;;;;;;4970193;28;20881;-90
2022/11/28 11:56:51;;;;;;;10.68;2.72;;;19.70;99.90;;;;;;5060789;28;20874;-90
2022/11/28 11:59:23;;;;;;;11.20;2.63;;;19.60;99.90;;;;;;5066335;28;20499;-90
2022/11/28 12:02:08;;;;;;;9.65;2.53;;;19.60;99.90;;;;;;5066280;28;20390;-90
2022/11/28 12:04:43;;;;;;;10.70;2.70;;;19.60;99.90;;;;;;5066296;28;20385;-90
2022/11/28 12:07:22;;;;;;;9.83;2.30;;;19.60;99.90;;;;;;5048555;28;20781;-90
2022/11/28 12:09:51;;;;;;;9.20;2.45;;;19.50;99.90;;;;;;5066542;28;20485;-89
2022/11/28 12:12:28;;;;;;;10.63;2.70;;;19.60;99.90;;;;;;5052124;28;20707;-88
2022/11/28 12:14:55;;;;;;;10.77;2.50;;;19.60;99.90;;;;;;5066449;28;20381;-89
2022/11/28 12:17:41;;;;;;;9.10;2.50;;;19.60;99.90;;;;;;5067424;28;20381;-88
2022/11/28 12:20:32;;;;;;;11.23;2.63;;;19.60;99.90;;;;;;5066365;28;20374;-89
2022/11/28 12:23:24;;;;;;;9.75;2.55;;;19.60;99.90;;;;;;5057532;28;20386;-90
2022/11/28 12:26:23;;;;;;;10.25;2.50;;;19.50;99.90;;;;;;5048622;28;21000;-88
2022/11/28 12:29:11;;;;;;;12.63;3.00;;;19.40;99.90;;;;;;4972311;28;20455;-86
2022/11/28 12:32:13;;;;;;;10.27;2.58;;;19.30;99.90;;;;;;4982531;28;20433;-85
2022/11/28 12:34:56;;;;;;;10.60;2.55;;;19.20;99.90;;;;;;4968409;28;20433;-90
2022/11/28 12:37:52;;;;;;;9.60;2.80;;;19.10;99.90;;;;;;4957554;28;20453;-86
2022/11/28 12:40:50;;;;;;;9.98;2.53;;;18.90;99.90;;;;;;4955404;28;20773;-85
2022/11/28 12:43:59;;;;;;;9.52;2.55;;;18.70;99.90;;;;;;4952984;28;20539;-85
2022/11/28 12:47:02;;;;;;;9.82;2.80;;;18.70;99.90;;;;;;4957564;28;20368;-85
2022/11/28 12:49:38;;;;;;;12.02;2.70;;;18.60;99.90;;;;;;4951709;28;20396;-87
2022/11/28 12:52:30;;;;;;;11.82;2.75;;;18.60;99.90;;;;;;4956073;28;20737;-86
2022/11/28 12:55:08;;;;;;;9.27;2.70;;;18.60;99.90;;;;;;4946548;28;20395;-87
2022/11/28 12:58:39;;;;;;;9.10;2.90;;;18.60;99.90;;;;;;4966690;28;20418;-87
2022/11/28 13:01:28;;;;;;;14.15;3.00;;;18.50;99.90;;;;;;4890930;29;20417;-87
2022/11/28 13:04:02;;;;;;;13.38;2.70;;;18.30;99.90;;;;;;4906866;29;20392;-87
2022/11/28 13:06:44;;;;;;;13.30;2.90;;;18.20;99.90;;;;;;4939305;29;20407;-84
2022/11/28 13:09:28;;;;;;;11.80;2.90;;;18.20;99.90;;;;;;4963941;28;20958;-87
2022/11/28 13:12:21;;;;;;;11.30;2.80;;;18.10;99.90;;;;;;4927778;29;20769;-86
2022/11/28 13:15:02;;;;;;;9.37;2.70;;;18.00;99.90;;;;;;4936106;29;20539;-87
2022/11/28 13:17:48;;;;;;;9.00;2.63;;;18.00;99.90;;;;;;4931275;29;20736;-89
2022/11/28 13:20:20;;;;;;;10.17;2.70;;;18.10;99.90;;;;;;4940509;29;20407;-86
2022/11/28 13:23:16;;;;;;;11.43;2.83;;;18.30;99.90;;;;;;4934944;29;20878;-88
2022/11/28 13:26:10;;;;;;;12.45;3.05;;;18.40;99.90;;;;;;4932991;29;20404;-84
2022/11/28 13:29:02;;;;;;;12.05;3.00;;;18.50;99.90;;;;;;4943261;28;20438;-87
2022/11/28 13:31:44;;;;;;;12.80;2.75;;;18.60;99.90;;;;;;4873169;29;20911;-87
2022/11/28 13:34:18;;;;;;;12.05;2.72;;;18.60;99.90;;;;;;4873717;29;20778;-85
2022/11/28 13:37:11;;;;;;;10.65;3.25;;;18.60;99.90;;;;;;4906273;29;20533;-87